createdAt,value
2022-08-29T00:01:38.926Z,4.45
2022-08-29T00:03:43.110Z,4.45
2022-08-29T00:05:50.134Z,4.68
2022-08-29T00:07:53.466Z,4.10
2022-08-29T00:09:55.749Z,4.55
2022-08-29T00:11:57.876Z,4.63
2022-08-29T00:14:00.373Z,4.18
2022-08-29T00:16:02.648Z,4.60
2022-08-29T00:18:05.534Z,4.80
2022-08-29T00:20:13.431Z,4.30
2022-08-29T00:22:15.461Z,4.93
2022-08-29T00:24:17.587Z,4.55
2022-08-29T00:26:20.016Z,4.35
2022-08-29T00:28:22.599Z,4.70
2022-08-29T00:30:25.202Z,4.30
2022-08-29T00:32:35.027Z,5.13
2022-08-29T00:34:37.084Z,4.35
2022-08-29T00:36:39.194Z,4.40
2022-08-29T00:38:41.832Z,3.92
2022-08-29T00:40:51.259Z,4.20
2022-08-29T00:42:54.647Z,4.53
2022-08-29T00:44:56.703Z,4.18
2022-08-29T00:47:05.737Z,4.40
2022-08-29T00:49:32.230Z,4.75
2022-08-29T00:51:34.964Z,4.88
2022-08-29T00:53:41.364Z,3.72
2022-08-29T00:55:50.643Z,4.55
2022-08-29T00:58:08.651Z,4.68
2022-08-29T01:00:15.108Z,4.20
2022-08-29T01:02:18.184Z,5.00
2022-08-29T01:04:23.577Z,4.38
2022-08-29T01:06:28.646Z,4.32
2022-08-29T01:08:31.456Z,3.90
2022-08-29T01:10:53.945Z,4.18
2022-08-29T01:12:56.469Z,4.72
2022-08-29T01:15:06.184Z,4.38
2022-08-29T01:17:10.202Z,4.57
2022-08-29T01:19:30.221Z,5.05
2022-08-29T01:22:09.331Z,4.80
2022-08-29T01:24:20.117Z,5.00
2022-08-29T01:26:23.240Z,4.57
2022-08-29T01:28:31.654Z,4.57
2022-08-29T01:30:34.132Z,5.22
2022-08-29T01:32:36.250Z,4.80
2022-08-29T01:34:38.097Z,4.35
2022-08-29T01:36:48.387Z,4.78
2022-08-29T01:38:50.488Z,4.72
2022-08-29T01:40:53.087Z,5.07
2022-08-29T01:42:55.643Z,5.13
2022-08-29T01:45:00.596Z,5.82
2022-08-29T01:47:06.082Z,4.78
2022-08-29T01:49:10.471Z,5.20
2022-08-29T01:51:15.711Z,4.72
2022-08-29T01:53:18.485Z,4.82
2022-08-29T01:55:20.482Z,4.75
2022-08-29T01:57:22.607Z,5.00
2022-08-29T01:59:27.289Z,4.70
2022-08-29T02:01:39.233Z,5.30
2022-08-29T02:03:41.402Z,5.25
2022-08-29T02:05:43.379Z,4.90
2022-08-29T02:07:45.773Z,5.05
2022-08-29T02:09:48.617Z,4.63
2022-08-29T02:11:50.647Z,4.82
2022-08-29T02:13:58.159Z,4.95
2022-08-29T02:16:00.277Z,4.80
2022-08-29T02:18:02.364Z,5.50
2022-08-29T02:20:09.159Z,5.18
2022-08-29T02:22:12.961Z,5.07
2022-08-29T02:24:26.279Z,4.85
2022-08-29T02:26:28.923Z,5.07
2022-08-29T02:28:31.357Z,5.00
2022-08-29T02:30:33.788Z,4.68
2022-08-29T02:32:36.323Z,5.07
2022-08-29T02:34:38.398Z,4.38
2022-08-29T02:36:41.479Z,5.20
2022-08-29T02:38:45.353Z,6.13
2022-08-29T02:40:49.112Z,4.70
2022-08-29T02:42:51.408Z,5.10
2022-08-29T02:44:53.553Z,5.95
2022-08-29T02:46:56.501Z,5.40
2022-08-29T02:49:01.100Z,5.28
2022-08-29T02:51:03.433Z,4.97
2022-08-29T02:53:05.862Z,5.05
2022-08-29T02:55:10.993Z,5.50
2022-08-29T02:57:13.143Z,5.75
2022-08-29T02:59:15.697Z,5.28
2022-08-29T03:01:20.698Z,5.22
2022-08-29T03:03:23.131Z,4.72
2022-08-29T03:05:27.967Z,4.68
2022-08-29T03:07:29.992Z,5.28
2022-08-29T03:09:32.111Z,5.57
2022-08-29T03:11:34.429Z,5.22
2022-08-29T03:13:39.940Z,5.18
2022-08-29T03:15:42.068Z,4.85
2022-08-29T03:17:45.001Z,5.10
2022-08-29T03:19:46.976Z,5.32
2022-08-29T03:21:49.241Z,5.13
2022-08-29T03:23:51.921Z,5.28
2022-08-29T03:25:54.931Z,4.93
2022-08-29T03:28:01.968Z,5.60
2022-08-29T03:30:05.674Z,5.50
2022-08-29T03:32:07.939Z,5.80
2022-08-29T03:34:10.540Z,5.18
2022-08-29T03:36:13.894Z,5.00
2022-08-29T03:38:17.868Z,5.63
2022-08-29T03:40:20.967Z,5.03
2022-08-29T03:42:25.902Z,5.20
2022-08-29T03:44:28.612Z,5.32
2022-08-29T03:46:31.070Z,5.93
2022-08-29T03:48:33.995Z,6.65
2022-08-29T03:50:36.247Z,5.75
2022-08-29T03:52:38.187Z,5.68
2022-08-29T03:54:41.339Z,5.97
2022-08-29T03:56:43.513Z,6.13
2022-08-29T03:58:50.404Z,5.97
2022-08-29T04:00:54.982Z,6.63
2022-08-29T04:02:58.526Z,7.03
2022-08-29T04:05:10.208Z,6.25
2022-08-29T04:07:14.943Z,7.28
2022-08-29T04:09:17.062Z,7.15
2022-08-29T04:11:20.164Z,6.70
2022-08-29T04:13:22.333Z,6.45
2022-08-29T04:15:26.232Z,6.82
2022-08-29T04:17:28.823Z,6.25
2022-08-29T04:19:31.928Z,6.55
2022-08-29T04:21:35.225Z,6.72
2022-08-29T04:23:39.265Z,6.72
2022-08-29T04:25:46.118Z,6.82
2022-08-29T04:27:49.871Z,7.57
2022-08-29T04:29:52.049Z,6.65
2022-08-29T04:31:54.349Z,7.53
2022-08-29T04:33:56.861Z,6.43
2022-08-29T04:35:59.049Z,6.88
2022-08-29T04:38:01.071Z,6.68
2022-08-29T04:40:03.827Z,7.07
2022-08-29T04:42:06.568Z,7.45
2022-08-29T04:44:10.861Z,7.43
2022-08-29T04:46:23.459Z,6.75
2022-08-29T04:48:27.126Z,7.40
2022-08-29T04:50:29.581Z,6.60
2022-08-29T04:52:34.666Z,6.85
2022-08-29T04:54:37.196Z,7.35
2022-08-29T04:56:43.141Z,9.82
2022-08-29T04:58:52.251Z,9.25
2022-08-29T05:00:57.966Z,8.55
2022-08-29T05:03:00.360Z,7.88
2022-08-29T05:05:02.782Z,6.78
2022-08-29T05:07:05.475Z,6.53
2022-08-29T05:09:07.734Z,6.32
2022-08-29T05:11:22.790Z,6.53
2022-08-29T05:13:25.876Z,6.80
2022-08-29T05:15:28.491Z,5.97
2022-08-29T05:17:33.749Z,5.47
2022-08-29T05:19:44.918Z,5.75
2022-08-29T05:21:49.378Z,6.18
2022-08-29T05:23:51.973Z,6.10
2022-08-29T05:25:59.591Z,7.30
2022-08-29T05:28:01.946Z,6.15
2022-08-29T05:30:05.209Z,7.05
2022-08-29T05:32:09.167Z,5.93
2022-08-29T05:34:32.119Z,7.15
2022-08-29T05:36:34.891Z,6.88
2022-08-29T05:38:37.572Z,7.28
2022-08-29T05:40:40.355Z,6.70
2022-08-29T05:42:43.166Z,7.78
2022-08-29T05:44:46.155Z,8.18
2022-08-29T05:46:49.041Z,7.93
2022-08-29T05:48:51.488Z,7.25
2022-08-29T05:50:53.996Z,6.60
2022-08-29T05:52:56.528Z,6.75
2022-08-29T05:55:02.533Z,6.95
2022-08-29T05:57:05.922Z,7.13
2022-08-29T05:59:08.334Z,7.57
2022-08-29T06:01:29.552Z,8.18
2022-08-29T06:03:35.261Z,7.90
2022-08-29T06:05:38.743Z,6.95
2022-08-29T06:07:41.033Z,7.57
2022-08-29T06:09:43.771Z,7.28
2022-08-29T06:11:48.729Z,7.72
2022-08-29T06:13:50.856Z,7.43
2022-08-29T06:15:53.369Z,6.40
2022-08-29T06:17:58.221Z,6.72
2022-08-29T06:20:00.648Z,7.78
2022-08-29T06:22:05.666Z,7.38
2022-08-29T06:24:12.216Z,7.32
2022-08-29T06:26:16.182Z,7.85
2022-08-29T06:28:23.778Z,6.80
2022-08-29T06:30:27.043Z,7.13
2022-08-29T06:32:29.255Z,6.68
2022-08-29T06:34:31.734Z,7.03
2022-08-29T06:36:36.976Z,6.95
2022-08-29T06:38:40.599Z,7.78
2022-08-29T06:40:42.818Z,6.13
2022-08-29T06:42:45.106Z,6.88
2022-08-29T06:44:47.872Z,7.65
2022-08-29T06:46:51.034Z,7.10
2022-08-29T06:48:56.599Z,7.10
2022-08-29T06:51:02.024Z,7.38
2022-08-29T06:53:26.347Z,7.50
2022-08-29T06:55:27.766Z,6.28
2022-08-29T06:57:30.166Z,7.65
2022-08-29T06:59:32.476Z,6.43
2022-08-29T07:01:35.134Z,6.70
2022-08-29T07:03:39.073Z,7.00
2022-08-29T07:05:41.490Z,7.10
2022-08-29T07:07:43.944Z,7.60
2022-08-29T07:09:46.231Z,6.32
2022-08-29T07:11:48.720Z,6.90
2022-08-29T07:13:50.927Z,6.65
2022-08-29T07:15:53.527Z,6.43
2022-08-29T07:17:59.717Z,7.13
2022-08-29T07:20:02.299Z,7.10
2022-08-29T07:22:04.407Z,7.95
2022-08-29T07:24:07.751Z,7.07
2022-08-29T07:26:12.745Z,7.03
2022-08-29T07:28:14.985Z,7.18
2022-08-29T07:30:18.220Z,7.70
2022-08-29T07:32:25.228Z,6.88
2022-08-29T07:34:28.592Z,7.20
2022-08-29T07:36:36.565Z,7.82
2022-08-29T07:38:39.506Z,7.03
2022-08-29T07:40:41.464Z,6.82
2022-08-29T07:42:44.416Z,6.72
2022-08-29T07:44:46.308Z,7.07
2022-08-29T07:46:49.258Z,7.47
2022-08-29T07:48:52.713Z,6.32
2022-08-29T07:50:54.578Z,6.53
2022-08-29T07:52:56.464Z,6.90
2022-08-29T07:54:58.561Z,7.75
2022-08-29T07:57:00.751Z,6.03
2022-08-29T07:59:02.653Z,6.45
2022-08-29T08:01:05.229Z,6.68
2022-08-29T08:03:11.188Z,6.55
2022-08-29T08:05:13.554Z,5.88
2022-08-29T08:07:18.888Z,6.07
2022-08-29T08:09:21.259Z,6.05
2022-08-29T08:11:25.204Z,6.18
2022-08-29T08:13:28.672Z,5.75
2022-08-29T08:15:30.530Z,6.38
2022-08-29T08:17:32.325Z,6.30
2022-08-29T08:19:34.164Z,5.25
2022-08-29T08:21:35.988Z,5.88
2022-08-29T08:23:38.754Z,6.00
2022-08-29T08:25:40.574Z,5.90
2022-08-29T08:27:43.628Z,5.95
2022-08-29T08:29:45.800Z,6.05
2022-08-29T08:31:49.965Z,5.82
2022-08-29T08:33:52.321Z,5.88
2022-08-29T08:35:54.217Z,5.78
2022-08-29T08:37:56.553Z,6.18
2022-08-29T08:39:59.345Z,5.18
2022-08-29T08:42:04.472Z,5.55
2022-08-29T08:44:35.114Z,6.40
2022-08-29T08:46:50.628Z,5.82
2022-08-29T08:48:55.371Z,6.05
2022-08-29T08:51:05.690Z,5.97
2022-08-29T08:53:15.153Z,5.47
2022-08-29T08:55:35.311Z,5.95
2022-08-29T08:57:42.774Z,5.10
2022-08-29T08:59:56.607Z,6.03
2022-08-29T09:02:06.599Z,5.68
2022-08-29T09:04:19.575Z,5.38
2022-08-29T09:06:50.703Z,6.00
2022-08-29T09:09:30.141Z,6.15
2022-08-29T09:11:43.497Z,5.82
2022-08-29T09:13:51.170Z,5.88
2022-08-29T09:15:55.128Z,5.97
2022-08-29T09:18:06.100Z,6.10
2022-08-29T09:20:13.313Z,5.85
2022-08-29T09:22:32.911Z,6.15
2022-08-29T09:25:03.515Z,6.60
2022-08-29T09:27:06.319Z,6.38
2022-08-29T09:29:10.020Z,6.53
2022-08-29T09:31:23.253Z,5.70
2022-08-29T09:33:40.932Z,6.10
2022-08-29T09:35:49.119Z,6.20
2022-08-29T09:38:06.957Z,6.63
2022-08-29T09:40:19.361Z,6.65
2022-08-29T09:42:23.402Z,6.35
2022-08-29T09:44:33.962Z,6.22
2022-08-29T09:46:35.763Z,6.57
2022-08-29T09:48:43.959Z,7.03
2022-08-29T09:50:45.705Z,6.40
2022-08-29T09:52:59.430Z,6.45
2022-08-29T09:55:39.148Z,5.60
2022-08-29T09:57:41.087Z,5.78
2022-08-29T09:59:47.486Z,6.50
2022-08-29T10:02:11.463Z,5.53
2022-08-29T10:04:13.665Z,5.90
2022-08-29T10:06:20.370Z,6.22
2022-08-29T10:08:37.228Z,5.70
2022-08-29T10:11:02.838Z,5.53
2022-08-29T10:13:36.769Z,5.88
2022-08-29T10:15:58.698Z,6.28
2022-08-29T10:18:24.052Z,5.80
2022-08-29T10:20:39.295Z,6.00
2022-08-29T10:23:06.573Z,6.45
2022-08-29T10:25:23.592Z,6.18
2022-08-29T10:27:40.537Z,6.45
2022-08-29T10:29:51.455Z,6.50
2022-08-29T10:32:00.288Z,6.50
2022-08-29T10:34:29.275Z,6.32
2022-08-29T10:36:36.798Z,5.50
2022-08-29T10:38:39.360Z,5.68
2022-08-29T10:40:49.765Z,5.22
2022-08-29T10:43:02.687Z,5.93
2022-08-29T10:45:50.829Z,6.18
2022-08-29T10:48:07.139Z,5.57
2022-08-29T10:50:45.691Z,5.55
2022-08-29T10:52:54.111Z,5.10
2022-08-29T10:55:14.255Z,5.22
2022-08-29T10:57:42.706Z,5.45
2022-08-29T11:00:16.943Z,5.70
2022-08-29T11:02:41.687Z,5.50
2022-08-29T11:04:53.508Z,5.43
2022-08-29T11:07:18.113Z,5.45
2022-08-29T11:09:28.173Z,5.85
2022-08-29T11:11:33.207Z,6.05
2022-08-29T11:13:43.226Z,5.10
2022-08-29T11:15:56.961Z,5.70
2022-08-29T11:18:11.467Z,5.15
2022-08-29T11:20:24.277Z,5.47
2022-08-29T11:23:09.710Z,5.72
2022-08-29T11:25:18.583Z,5.55
2022-08-29T11:27:54.764Z,5.82
2022-08-29T11:30:08.121Z,6.07
2022-08-29T11:32:32.139Z,5.47
2022-08-29T11:35:11.646Z,5.53
2022-08-29T11:37:52.146Z,5.63
2022-08-29T11:40:12.445Z,6.07
2022-08-29T11:42:49.895Z,5.40
2022-08-29T11:44:52.723Z,5.85
2022-08-29T11:46:56.897Z,5.55
2022-08-29T11:49:24.601Z,5.65
2022-08-29T11:51:39.388Z,6.47
2022-08-29T11:53:41.157Z,6.22
2022-08-29T11:55:46.228Z,5.25
2022-08-29T11:57:51.320Z,5.55
2022-08-29T12:00:02.753Z,5.70
2022-08-29T12:02:31.221Z,6.20
2022-08-29T12:04:55.931Z,6.30
2022-08-29T12:07:02.508Z,6.15
2022-08-29T12:09:14.126Z,6.20
2022-08-29T12:11:16.222Z,6.03
2022-08-29T12:13:58.294Z,6.35
2022-08-29T12:16:09.501Z,6.43
2022-08-29T12:18:13.558Z,7.03
2022-08-29T12:20:33.682Z,6.68
2022-08-29T12:23:01.746Z,6.22
2022-08-29T12:25:28.181Z,6.68
2022-08-29T12:28:21.018Z,7.20
2022-08-29T12:30:23.038Z,7.20
2022-08-29T12:32:42.159Z,6.10
2022-08-29T12:34:46.230Z,6.60
2022-08-29T12:36:52.527Z,6.60
2022-08-29T12:39:14.275Z,6.45
2022-08-29T12:41:30.550Z,6.68
2022-08-29T12:43:42.899Z,5.93
2022-08-29T12:45:46.856Z,6.63
2022-08-29T12:47:53.670Z,6.13
2022-08-29T12:50:00.480Z,6.05
2022-08-29T12:52:07.079Z,6.55
2022-08-29T12:54:12.026Z,5.93
2022-08-29T12:56:20.317Z,6.32
2022-08-29T12:58:51.377Z,5.40
2022-08-29T13:00:53.888Z,5.75
2022-08-29T13:03:18.295Z,5.28
2022-08-29T13:05:28.341Z,5.10
2022-08-29T13:07:31.470Z,5.70
2022-08-29T13:09:49.019Z,5.80
2022-08-29T13:12:16.563Z,5.72
2022-08-29T13:14:19.134Z,6.00
2022-08-29T13:16:30.593Z,6.55
2022-08-29T13:18:40.462Z,6.13
2022-08-29T13:21:11.096Z,5.18
2022-08-29T13:23:12.856Z,4.85
2022-08-29T13:25:17.550Z,3.65
2022-08-29T13:27:21.780Z,3.50
2022-08-29T13:29:36.774Z,3.50
2022-08-29T13:31:40.548Z,8.38
2022-08-29T13:33:51.541Z,8.40
2022-08-29T13:35:53.401Z,5.90
2022-08-29T13:38:20.866Z,5.50
2022-08-29T13:40:42.035Z,4.90
2022-08-29T13:42:45.552Z,4.30
2022-08-29T13:44:47.466Z,4.15
2022-08-29T13:46:52.341Z,5.25
2022-08-29T13:49:03.560Z,5.88
2022-08-29T13:51:06.896Z,4.80
2022-08-29T13:53:09.062Z,4.85
2022-08-29T13:55:11.423Z,4.53
2022-08-29T13:57:23.533Z,4.75
2022-08-29T13:59:30.731Z,4.30
2022-08-29T14:04:03.549Z,4.55
2022-08-29T14:06:11.522Z,4.45
2022-08-29T14:08:13.595Z,3.72
2022-08-29T14:10:17.274Z,4.32
2022-08-29T14:12:19.671Z,4.28
2022-08-29T14:14:32.395Z,3.80
2022-08-29T14:16:34.195Z,3.83
2022-08-29T14:18:36.388Z,3.70
2022-08-29T14:20:39.047Z,3.13
2022-08-29T14:22:42.261Z,4.18
2022-08-29T14:24:51.429Z,3.85
2022-08-29T14:27:01.502Z,4.00
2022-08-29T14:29:03.947Z,3.80
2022-08-29T14:31:05.904Z,3.50
2022-08-29T14:33:09.069Z,3.47
2022-08-29T14:35:12.336Z,3.70
2022-08-29T14:37:28.169Z,4.22
2022-08-29T14:39:30.208Z,5.30
2022-08-29T14:41:32.020Z,4.68
2022-08-29T14:43:39.146Z,5.30
2022-08-29T14:45:41.864Z,5.50
2022-08-29T14:47:45.495Z,5.68
2022-08-29T14:49:47.298Z,5.80
2022-08-29T14:51:49.298Z,5.55
2022-08-29T14:53:54.569Z,5.13
2022-08-29T14:55:57.716Z,5.20
2022-08-29T14:58:00.428Z,5.00
2022-08-29T15:00:13.237Z,5.22
2022-08-29T15:02:15.163Z,5.30
2022-08-29T15:04:17.117Z,5.68
2022-08-29T15:06:23.543Z,5.05
2022-08-29T15:08:25.438Z,4.70
2022-08-29T15:10:27.874Z,5.07
2022-08-29T15:12:29.890Z,4.85
2022-08-29T15:14:32.171Z,4.55
2022-08-29T15:16:34.156Z,3.90
2022-08-29T15:19:24.872Z,4.22
2022-08-29T15:20:58.510Z,3.63
2022-08-29T15:23:00.512Z,3.45
2022-08-29T15:25:03.474Z,4.45
2022-08-29T15:27:06.557Z,3.97
2022-08-29T15:29:09.059Z,3.60
2022-08-29T15:31:11.206Z,3.95
2022-08-29T15:33:14.044Z,4.25
2022-08-29T15:35:16.059Z,3.90
2022-08-29T15:37:17.975Z,3.92
2022-08-29T15:39:20.604Z,4.60
2022-08-29T15:41:22.458Z,3.88
2022-08-29T15:43:24.366Z,3.92
2022-08-29T15:45:26.382Z,4.70
2022-08-29T15:47:28.215Z,4.82
2022-08-29T15:49:30.700Z,4.43
2022-08-29T15:51:33.778Z,3.97
2022-08-29T15:53:35.571Z,4.10
2022-08-29T15:55:40.246Z,4.18
2022-08-29T15:57:52.535Z,4.38
2022-08-29T15:59:57.953Z,4.47
2022-08-29T16:02:00.648Z,4.88
2022-08-29T16:04:02.806Z,4.13
2022-08-29T16:06:05.277Z,3.83
2022-08-29T16:08:07.520Z,4.50
2022-08-29T16:10:12.585Z,4.35
2022-08-29T16:12:14.724Z,4.90
2022-08-29T16:16:40.692Z,4.18
2022-08-29T16:18:43.147Z,4.35
2022-08-29T16:20:44.993Z,4.80
2022-08-29T16:22:50.091Z,4.35
2022-08-29T16:24:52.310Z,4.28
2022-08-29T16:26:54.206Z,4.03
2022-08-29T16:28:56.166Z,4.55
2022-08-29T16:30:59.081Z,4.35
2022-08-29T16:33:01.945Z,3.85
2022-08-29T16:35:04.820Z,4.30
2022-08-29T16:37:06.823Z,4.38
2022-08-29T16:39:09.194Z,5.55
2022-08-29T16:41:14.316Z,6.80
2022-08-29T16:43:16.920Z,6.38
2022-08-29T16:45:18.772Z,6.07
2022-08-29T16:47:20.691Z,5.60
2022-08-29T16:49:22.715Z,5.60
2022-08-29T16:51:26.557Z,5.65
2022-08-29T16:53:28.369Z,5.63
2022-08-29T16:55:30.786Z,5.78
2022-08-29T16:57:32.781Z,6.15
2022-08-29T16:59:37.451Z,5.60
2022-08-29T17:01:46.231Z,5.18
2022-08-29T17:03:48.140Z,5.10
2022-08-29T17:05:49.989Z,4.93
2022-08-29T17:07:52.141Z,5.35
2022-08-29T17:09:53.823Z,4.97
2022-08-29T17:11:56.517Z,4.35
2022-08-29T17:13:58.382Z,4.90
2022-08-29T17:16:05.699Z,5.13
2022-08-29T17:18:07.630Z,4.63
2022-08-29T17:20:11.634Z,5.03
2022-08-29T17:22:15.968Z,4.43
2022-08-29T17:24:18.448Z,6.05
2022-08-29T17:26:20.446Z,4.72
2022-08-29T17:28:22.909Z,4.43
2022-08-29T17:30:24.901Z,4.93
2022-08-29T17:32:26.748Z,4.20
2022-08-29T17:34:28.666Z,4.00
2022-08-29T17:36:30.452Z,4.25
2022-08-29T17:38:33.035Z,4.15
2022-08-29T17:40:35.396Z,3.92
2022-08-29T17:42:37.584Z,4.07
2022-08-29T17:44:39.368Z,3.78
2022-08-29T17:46:41.438Z,3.70
2022-08-29T17:48:43.576Z,3.25
2022-08-29T17:50:46.496Z,3.30
2022-08-29T17:52:48.886Z,3.38
2022-08-29T17:54:50.688Z,4.20
2022-08-29T17:56:55.634Z,3.38
2022-08-29T17:58:58.659Z,3.67
2022-08-29T18:01:00.500Z,4.13
2022-08-29T18:03:02.722Z,4.50
2022-08-29T18:05:04.962Z,4.00
2022-08-29T18:07:06.790Z,4.15
2022-08-29T18:09:09.236Z,4.07
2022-08-29T18:11:12.831Z,4.72
2022-08-29T18:13:17.555Z,4.10
2022-08-29T18:15:24.412Z,4.53
2022-08-29T18:17:27.513Z,4.13
2022-08-29T18:19:29.314Z,4.05
2022-08-29T18:21:31.772Z,4.70
2022-08-29T18:23:33.898Z,4.20
2022-08-29T18:25:36.462Z,4.55
2022-08-29T18:27:43.049Z,4.60
2022-08-29T18:29:45.608Z,4.93
2022-08-29T18:31:48.211Z,4.70
2022-08-29T18:34:00.591Z,4.90
2022-08-29T18:36:06.294Z,4.30
2022-08-29T18:38:08.298Z,6.20
2022-08-29T18:40:10.977Z,6.95
2022-08-29T18:42:30.630Z,5.93
2022-08-29T18:44:35.681Z,4.57
2022-08-29T18:46:41.051Z,4.00
2022-08-29T18:48:44.904Z,4.00
2022-08-29T18:50:48.446Z,4.05
2022-08-29T18:52:50.412Z,3.63
2022-08-29T18:54:52.168Z,4.00
2022-08-29T18:56:53.968Z,3.92
2022-08-29T18:58:58.737Z,4.80
2022-08-29T19:01:26.847Z,5.15
2022-08-29T19:03:29.878Z,4.40
2022-08-29T19:05:33.618Z,4.25
2022-08-29T19:07:35.530Z,3.72
2022-08-29T19:09:37.301Z,3.75
2022-08-29T19:11:39.197Z,4.10
2022-08-29T19:13:41.269Z,3.90
2022-08-29T19:15:49.877Z,3.85
2022-08-29T19:17:52.525Z,4.13
2022-08-29T19:20:12.918Z,4.55
2022-08-29T19:22:14.795Z,4.70
2022-08-29T19:24:16.687Z,4.47
2022-08-29T19:26:23.427Z,5.03
2022-08-29T19:28:25.977Z,4.38
2022-08-29T19:30:27.943Z,4.78
2022-08-29T19:32:29.832Z,4.82
2022-08-29T19:34:31.624Z,5.22
2022-08-29T19:36:34.157Z,5.10
2022-08-29T19:38:36.689Z,4.65
2022-08-29T19:40:39.705Z,4.78
2022-08-29T19:42:41.814Z,4.50
2022-08-29T19:44:44.117Z,4.55
2022-08-29T19:46:49.332Z,5.85
2022-08-29T19:48:52.660Z,5.90
2022-08-29T19:50:54.734Z,4.95
2022-08-29T19:52:56.618Z,5.68
2022-08-29T19:55:00.273Z,5.22
2022-08-29T19:57:02.113Z,6.18
2022-08-29T19:59:05.129Z,4.75
2022-08-29T20:01:10.258Z,5.22
2022-08-29T20:03:12.699Z,4.45
2022-08-29T20:05:18.068Z,4.57
2022-08-29T20:07:23.690Z,5.57
2022-08-29T20:09:29.577Z,4.85
2022-08-29T20:11:32.542Z,4.97
2022-08-29T20:13:50.513Z,5.35
2022-08-29T20:16:04.088Z,4.90
2022-08-29T20:18:10.038Z,5.57
2022-08-29T20:20:17.963Z,5.47
2022-08-29T20:22:21.441Z,4.85
2022-08-29T20:24:24.585Z,5.20
2022-08-29T20:26:36.129Z,5.28
2022-08-29T20:28:39.290Z,4.70
2022-08-29T20:30:42.001Z,5.28
2022-08-29T20:32:47.721Z,4.85
2022-08-29T20:34:52.679Z,5.20
2022-08-29T20:37:10.609Z,4.60
2022-08-29T20:39:18.100Z,4.63
2022-08-29T20:41:21.291Z,4.68
2022-08-29T20:43:24.104Z,4.25
2022-08-29T20:45:26.331Z,5.07
2022-08-29T20:47:28.614Z,4.50
2022-08-29T20:49:30.883Z,4.63
2022-08-29T20:51:38.233Z,4.03
2022-08-29T20:53:41.151Z,4.50
2022-08-29T20:55:43.602Z,4.22
2022-08-29T20:57:45.809Z,4.50
2022-08-29T20:59:48.068Z,4.68
2022-08-29T21:01:50.749Z,4.18
2022-08-29T21:04:11.373Z,4.15
2022-08-29T21:06:14.333Z,4.68
2022-08-29T21:08:23.044Z,4.80
2022-08-29T21:10:25.588Z,3.85
2022-08-29T21:12:30.332Z,4.47
2022-08-29T21:14:32.482Z,4.57
2022-08-29T21:16:38.795Z,4.32
2022-08-29T21:18:41.645Z,4.15
2022-08-29T21:20:54.301Z,3.90
2022-08-29T21:22:59.748Z,3.92
2022-08-29T21:25:02.085Z,4.28
2022-08-29T21:27:04.723Z,4.38
2022-08-29T21:29:08.045Z,4.10
2022-08-29T21:31:12.975Z,4.20
2022-08-29T21:33:15.398Z,4.63
2022-08-29T21:35:18.590Z,4.00
2022-08-29T21:37:20.927Z,4.40
2022-08-29T21:39:28.403Z,4.38
2022-08-29T21:41:32.151Z,4.25
2022-08-29T21:43:34.550Z,4.50
2022-08-29T21:45:36.707Z,4.10
2022-08-29T21:47:38.740Z,3.78
2022-08-29T21:49:40.774Z,4.28
2022-08-29T21:51:43.263Z,4.10
2022-08-29T21:53:50.723Z,4.57
2022-08-29T21:55:53.180Z,4.45
2022-08-29T21:57:57.687Z,4.25
2022-08-29T21:59:59.831Z,4.07
2022-08-29T22:02:02.638Z,4.05
2022-08-29T22:04:07.407Z,3.92
2022-08-29T22:06:11.246Z,3.90
2022-08-29T22:08:14.376Z,3.97
2022-08-29T22:10:23.301Z,3.88
2022-08-29T22:12:28.904Z,3.95
2022-08-29T22:14:50.079Z,3.85
2022-08-29T22:16:53.108Z,4.32
2022-08-29T22:19:24.921Z,4.22
2022-08-29T22:21:29.046Z,4.13
2022-08-29T22:23:31.474Z,4.78
2022-08-29T22:25:34.909Z,4.43
2022-08-29T22:27:37.446Z,4.22
2022-08-29T22:29:39.569Z,4.40
2022-08-29T22:31:42.920Z,4.32
2022-08-29T22:33:48.167Z,4.15
2022-08-29T22:35:50.316Z,4.28
2022-08-29T22:37:55.584Z,4.22
2022-08-29T22:39:58.044Z,4.72
2022-08-29T22:42:02.786Z,4.47
2022-08-29T22:44:52.561Z,4.63
2022-08-29T22:46:28.707Z,4.25
2022-08-29T22:48:30.936Z,4.10
2022-08-29T22:50:33.257Z,4.07
2022-08-29T22:52:38.532Z,4.50
2022-08-29T22:54:40.886Z,5.65
2022-08-29T22:56:45.494Z,5.15
2022-08-29T22:58:50.567Z,4.60
2022-08-29T23:00:53.160Z,4.80
2022-08-29T23:02:55.998Z,5.65
2022-08-29T23:04:58.305Z,5.30
2022-08-29T23:07:00.959Z,6.80
2022-08-29T23:09:04.218Z,5.13
2022-08-29T23:11:08.954Z,5.20
2022-08-29T23:13:12.163Z,5.30
2022-08-29T23:15:17.631Z,5.53
2022-08-29T23:17:20.152Z,5.60
2022-08-29T23:19:22.214Z,6.63
2022-08-29T23:21:24.425Z,5.38
2022-08-29T23:23:26.519Z,5.28
2022-08-29T23:25:28.704Z,6.22
2022-08-29T23:27:32.985Z,6.43
2022-08-29T23:29:42.011Z,6.05
2022-08-29T23:31:44.687Z,6.22
2022-08-29T23:33:48.744Z,6.38
2022-08-29T23:35:50.945Z,5.68
2022-08-29T23:37:56.130Z,7.43
2022-08-29T23:39:58.667Z,5.78
2022-08-29T23:42:04.335Z,6.30
2022-08-29T23:44:07.013Z,6.65
2022-08-29T23:46:09.321Z,6.97
2022-08-29T23:48:11.496Z,6.30
2022-08-29T23:50:14.197Z,6.40
2022-08-29T23:52:16.656Z,6.38
2022-08-29T23:54:19.707Z,5.72
2022-08-29T23:56:22.348Z,5.93
2022-08-29T23:58:24.442Z,6.20
